createdAt,value
2023-04-12T00:02:18.124Z,9.58
2023-04-12T00:07:40.055Z,9.57
2023-04-12T00:13:02.030Z,9.55
2023-04-12T00:18:24.033Z,9.53
2023-04-12T00:23:46.026Z,9.49
2023-04-12T00:29:08.035Z,9.47
2023-04-12T00:34:30.031Z,9.41
2023-04-12T00:39:52.037Z,9.39
2023-04-12T00:45:15.039Z,9.39
2023-04-12T00:50:37.007Z,9.38
2023-04-12T00:55:59.017Z,9.39
2023-04-12T01:01:23.058Z,9.38
2023-04-12T01:07:10.040Z,9.38
2023-04-12T01:12:57.027Z,9.37
2023-04-12T01:18:23.030Z,9.35
2023-04-12T01:24:02.048Z,9.35
2023-04-12T01:29:29.001Z,9.35
2023-04-12T01:34:51.990Z,9.36
2023-04-12T01:40:15.997Z,9.36
2023-04-12T01:45:38.110Z,9.37
2023-04-12T01:51:12.029Z,9.33
2023-04-12T01:56:35.995Z,9.32
2023-04-12T02:01:59.077Z,9.31
2023-04-12T02:07:20.985Z,9.28
2023-04-12T02:12:43.014Z,9.27
2023-04-12T02:18:06.041Z,9.23
2023-04-12T02:23:30.015Z,9.21
2023-04-12T02:28:52.976Z,9.19
2023-04-12T02:34:14.987Z,9.19
2023-04-12T02:39:44.974Z,9.17
2023-04-12T02:45:08.989Z,9.16
2023-04-12T02:50:32.005Z,9.15
2023-04-12T02:56:04.888Z,9.14
2023-04-12T03:01:27.965Z,9.12
2023-04-12T03:07:11.962Z,9.11
2023-04-12T03:12:37.973Z,9.08
2023-04-12T03:18:05.030Z,9.05
2023-04-12T03:23:32.988Z,9.06
2023-04-12T03:29:08.899Z,9.07
2023-04-12T03:34:33.993Z,9.07
2023-04-12T03:40:01.000Z,9.03
2023-04-12T03:45:23.962Z,8.99
2023-04-12T03:50:50.947Z,8.95
2023-04-12T03:56:13.972Z,8.91
2023-04-12T04:01:41.015Z,8.89
2023-04-12T04:07:02.960Z,8.87
2023-04-12T04:12:28.950Z,8.88
2023-04-12T04:17:53.993Z,8.91
2023-04-12T04:23:30.980Z,8.90
2023-04-12T04:28:53.952Z,8.92
2023-04-12T04:34:22.963Z,8.92
2023-04-12T04:39:54.948Z,8.95
2023-04-12T04:45:21.971Z,8.95
2023-04-12T04:50:43.940Z,8.95
2023-04-12T04:56:12.933Z,8.96
2023-04-12T05:01:43.044Z,8.96
2023-04-12T05:07:05.951Z,8.95
2023-04-12T05:12:29.953Z,8.96
2023-04-12T05:17:51.983Z,8.94
2023-04-12T05:23:13.932Z,8.96
2023-04-12T05:28:35.929Z,8.98
2023-04-12T05:34:00.933Z,9.00
2023-04-12T05:39:28.947Z,9.05
2023-04-12T05:44:51.956Z,9.09
2023-04-12T05:50:13.917Z,9.12
2023-04-12T05:55:38.095Z,9.18
2023-04-12T06:01:00.957Z,9.23
2023-04-12T06:06:22.963Z,9.30
2023-04-12T06:11:45.961Z,9.35
2023-04-12T06:17:07.929Z,9.39
2023-04-12T06:22:36.951Z,9.46
2023-04-12T06:27:59.916Z,9.52
2023-04-12T06:33:29.901Z,9.54
2023-04-12T06:38:57.084Z,9.57
2023-04-12T06:44:19.250Z,9.54
2023-04-12T06:49:40.913Z,9.51
2023-04-12T06:55:02.901Z,9.54
2023-04-12T07:00:24.913Z,9.57
2023-04-12T07:05:46.901Z,9.60
2023-04-12T07:16:35.971Z,9.66
2023-04-12T07:21:57.896Z,9.74
2023-04-12T07:27:19.935Z,9.82
2023-04-12T07:32:41.954Z,9.88
2023-04-12T07:38:03.899Z,9.96
2023-04-12T07:43:33.117Z,10.02
2023-04-12T07:48:54.969Z,10.08
2023-04-12T07:54:16.893Z,10.11
2023-04-12T07:59:38.880Z,10.13
2023-04-12T08:05:00.895Z,10.15
2023-04-12T08:10:22.875Z,10.16
2023-04-12T08:15:44.902Z,10.16
2023-04-12T08:21:06.909Z,10.14
2023-04-12T08:26:28.858Z,10.15
2023-04-12T08:31:50.890Z,10.14
2023-04-12T08:37:12.871Z,10.14
2023-04-12T08:42:34.903Z,10.13
2023-04-12T08:47:57.912Z,10.14
2023-04-12T08:53:19.907Z,10.14
2023-04-12T08:58:42.853Z,10.23
2023-04-12T09:04:05.161Z,10.32
2023-04-12T09:09:26.902Z,10.38
2023-04-12T09:14:51.865Z,10.43
2023-04-12T09:20:13.895Z,10.46
2023-04-12T09:25:52.002Z,10.47
2023-04-12T09:31:13.920Z,10.55
2023-04-12T09:36:43.876Z,10.64
2023-04-12T09:42:31.744Z,10.71
2023-04-12T09:47:55.070Z,10.77
2023-04-12T09:53:17.987Z,10.82
2023-04-12T09:58:42.900Z,10.86
2023-04-12T10:04:05.375Z,10.91
2023-04-12T10:09:26.853Z,10.91
2023-04-12T10:14:48.901Z,10.99
2023-04-12T10:20:11.878Z,11.06
2023-04-12T10:25:36.887Z,11.09
2023-04-12T10:31:02.951Z,11.16
2023-04-12T10:36:24.904Z,11.21
2023-04-12T10:42:25.092Z,11.27
2023-04-12T10:48:07.907Z,11.32
2023-04-12T10:53:31.858Z,11.39
2023-04-12T10:59:02.068Z,11.47
2023-04-12T11:04:28.929Z,11.49
2023-04-12T11:09:58.852Z,11.54
2023-04-12T11:15:23.824Z,11.61
2023-04-12T11:20:45.997Z,11.69
2023-04-12T11:26:09.817Z,11.76
2023-04-12T11:31:33.877Z,11.81
2023-04-12T11:36:59.847Z,11.85
2023-04-12T11:42:36.839Z,11.84
2023-04-12T11:47:58.850Z,11.81
2023-04-12T11:53:25.819Z,11.82
2023-04-12T11:58:47.831Z,11.84
2023-04-12T12:04:10.368Z,11.90
2023-04-12T12:09:32.822Z,11.99
2023-04-12T12:14:56.839Z,12.02
2023-04-12T12:20:27.790Z,11.99
2023-04-12T12:25:49.804Z,12.00
2023-04-12T12:31:16.826Z,11.99
2023-04-12T12:36:49.814Z,11.97
2023-04-12T12:42:14.805Z,12.01
2023-04-12T12:47:36.883Z,12.03
2023-04-12T12:52:59.804Z,12.07
2023-04-12T12:58:22.798Z,12.06
2023-04-12T13:03:44.985Z,12.12
2023-04-12T13:09:06.841Z,12.20
2023-04-12T13:14:28.803Z,12.32
2023-04-12T13:19:50.795Z,12.46
2023-04-12T13:25:13.798Z,12.58
2023-04-12T13:30:35.804Z,12.75
2023-04-12T13:35:57.801Z,12.84
2023-04-12T13:41:19.820Z,12.89
2023-04-12T13:46:41.847Z,12.92
2023-04-12T13:52:03.791Z,12.93
2023-04-12T13:57:25.786Z,12.89
2023-04-12T14:02:47.874Z,12.89
2023-04-12T14:08:09.792Z,12.91
2023-04-12T14:13:31.796Z,12.92
2023-04-12T14:18:53.844Z,12.93
2023-04-12T14:24:15.831Z,12.90
2023-04-12T14:29:37.833Z,12.96
2023-04-12T14:34:59.797Z,13.00
2023-04-12T14:40:21.787Z,13.10
2023-04-12T14:45:43.784Z,13.12
2023-04-12T14:51:05.754Z,13.16
2023-04-12T14:56:41.430Z,13.22
2023-04-12T15:02:05.879Z,13.23
2023-04-12T15:07:27.786Z,13.26
2023-04-12T15:12:49.793Z,13.31
2023-04-12T15:18:11.763Z,13.34
2023-04-12T15:23:40.793Z,13.38
2023-04-12T15:29:02.758Z,13.40
2023-04-12T15:34:24.767Z,13.43
2023-04-12T15:39:48.774Z,13.47
2023-04-12T15:45:10.794Z,13.49
2023-04-12T15:50:32.776Z,13.52
2023-04-12T15:56:03.770Z,13.54
2023-04-12T16:01:26.804Z,13.55
2023-04-12T16:06:48.785Z,13.57
2023-04-12T16:12:10.760Z,13.58
2023-04-12T16:17:32.843Z,13.60
2023-04-12T16:22:55.768Z,13.65
2023-04-12T16:28:18.740Z,13.69
2023-04-12T16:33:41.639Z,13.73
2023-04-12T16:39:05.773Z,13.76
2023-04-12T16:44:27.760Z,13.77
2023-04-12T16:49:49.762Z,13.79
2023-04-12T16:55:12.784Z,13.79
2023-04-12T17:00:35.734Z,13.78
2023-04-12T17:05:57.753Z,13.85
2023-04-12T17:11:19.754Z,13.94
2023-04-12T17:16:41.827Z,14.00
2023-04-12T17:22:04.759Z,14.01
2023-04-12T17:27:26.843Z,14.02
2023-04-12T17:32:48.830Z,13.99
2023-04-12T17:38:10.738Z,13.96
2023-04-12T17:43:32.750Z,13.93
2023-04-12T17:48:54.753Z,13.86
2023-04-12T17:54:16.752Z,13.81
2023-04-12T17:59:38.716Z,13.76
2023-04-12T18:05:00.744Z,13.69
2023-04-12T18:10:25.744Z,13.63
2023-04-12T18:15:47.743Z,13.56
2023-04-12T18:21:10.739Z,13.39
2023-04-12T18:26:32.748Z,13.36
2023-04-12T18:31:54.750Z,13.26
2023-04-12T18:37:16.752Z,13.13
2023-04-12T18:42:38.735Z,12.98
2023-04-12T18:48:00.781Z,12.91
2023-04-12T18:53:22.767Z,12.92
2023-04-12T18:58:54.644Z,12.95
2023-04-12T19:04:16.884Z,13.00
2023-04-12T19:09:38.728Z,13.06
2023-04-12T19:15:00.847Z,13.11
2023-04-12T19:20:22.724Z,13.14
2023-04-12T19:25:44.734Z,13.17
2023-04-12T19:31:08.926Z,13.17
2023-04-12T19:36:31.710Z,13.10
2023-04-12T19:41:55.701Z,13.03
2023-04-12T19:47:17.722Z,12.99
2023-04-12T19:52:39.700Z,12.88
2023-04-12T19:58:02.748Z,12.73
2023-04-12T20:03:24.774Z,12.68
2023-04-12T20:08:46.694Z,12.59
2023-04-12T20:14:08.874Z,12.57
2023-04-12T20:19:33.703Z,12.62
2023-04-12T20:24:55.714Z,12.64
2023-04-12T20:30:17.713Z,12.70
2023-04-12T20:35:39.680Z,12.74
2023-04-12T20:41:01.699Z,12.77
2023-04-12T20:46:23.782Z,12.77
2023-04-12T20:51:46.701Z,12.80
2023-04-12T20:57:10.703Z,12.80
2023-04-12T21:02:32.853Z,12.82
2023-04-12T21:07:54.692Z,12.78
2023-04-12T21:13:18.668Z,12.74
2023-04-12T21:18:40.687Z,12.67
2023-04-12T21:24:09.695Z,12.58
2023-04-12T21:29:33.104Z,12.51
2023-04-12T21:34:54.702Z,12.44
2023-04-12T21:40:18.697Z,12.40
2023-04-12T21:45:40.715Z,12.38
2023-04-12T21:51:02.679Z,12.29
2023-04-12T21:56:24.688Z,12.23
2023-04-12T22:01:46.764Z,12.20
2023-04-12T22:07:12.705Z,12.19
2023-04-12T22:12:34.669Z,12.18
2023-04-12T22:17:56.741Z,12.16
2023-04-12T22:23:25.673Z,12.11
2023-04-12T22:28:47.688Z,12.06
2023-04-12T22:34:10.690Z,12.05
2023-04-12T22:39:32.666Z,12.01
2023-04-12T22:44:56.729Z,12.03
2023-04-12T22:50:19.653Z,12.03
2023-04-12T22:55:43.681Z,12.00
2023-04-12T23:01:05.709Z,11.98
2023-04-12T23:06:27.691Z,12.03
2023-04-12T23:11:49.662Z,12.01
2023-04-12T23:17:11.669Z,11.95
2023-04-12T23:22:55.367Z,11.88
2023-04-12T23:28:36.666Z,11.82
2023-04-12T23:33:58.925Z,11.75
2023-04-12T23:39:20.677Z,11.71
2023-04-12T23:44:42.661Z,11.63
2023-04-12T23:50:04.656Z,11.58
2023-04-12T23:55:26.689Z,11.47
